AirNav   Air Wisconsin Up To $57,000 Bonus
 
 1333 users online  

NH23 Cottage Hospital Heliport
Woodsville, New Hampshire, USA

GOING TO WOODSVILLE?


FAA INFORMATION EFFECTIVE 30 JANUARY 2020

Location

FAA Identifier: NH23
Lat/Long: 44-08-07.4700N 072-01-28.1200W
44-08.124500N 072-01.468667W
44.1354083,-72.0244778
(estimated)
Elevation: 551 ft. / 168 m (estimated)
From city: 1 mile SE of WOODSVILLE, NH
Time zone: UTC -5 (UTC -4 during Daylight Saving Time)
Zip code: 03785

Heliport Operations

Heliport use: Private use. Permission required prior to landing
Activation date: 11/2016
Control tower: no
ARTCC: BOSTON CENTER
FSS: BANGOR FLIGHT SERVICE STATION
Attendance: 
Wind indicator: no
Segmented circle: no

Nearby radio navigation aids

VOR radial/distance  VOR name  Freq  Var
MPVr097/18.5MONTPELIER VOR/DME110.8016W
LEBr032/28.6LEBANON VOR/DME113.7015W

 
NDB name  Hdg/Dist  Freq  Var  ID
MAHN244/19.938617WGMA --. -- .-
HANOVER029/26.827615WLAH .-.. .- ....

Heliport Services

Runway Information

Helipad H1

Dimensions: 40 x 40 ft. / 12 x 12 m
Surface: asphalt
Latitude: 44-08.124500N
Longitude: 072-01.468667W
Elevation: 551.0 ft.
Traffic pattern: leftleft

Heliport Ownership and Management from official FAA records

Ownership: Privately-owned
Owner: COTTAGE HOSPITAL
90 SWIFTWATER ROAD
WOODSVILLE, NH 03785
Phone 603-747-9000
Manager: EDWARD BOUCHARD
90 SWIFTWATER ROAD
WOODSVILLE, NH 03785
Phone 603-747-9000

Additional Remarks

FOR CD CTC BOSTON ARTCC AT 603-879-6859.

Instrument Procedures

There are no published instrument procedures at NH23.

Some nearby airports with instrument procedures:

5B9 - Dean Memorial Airport (3 nm S)
KMPV - Edward F Knapp State Airport (23 nm W)
KHIE - Mount Washington Regional Airport (25 nm NE)
KCDA - Caledonia County Airport (26 nm N)
KLEB - Lebanon Municipal Airport (33 nm S)
 
Loc | Ops | Rwys | IFR | FBO | Links
Com | Nav | Svcs | Stats | Notes
Aerial photo
No photo
 
Airport distance calculator
Flying to Cottage Hospital Heliport? Find the distance to fly.

From to NH23

Sunrise and sunset
Times for 17-Feb-2020
 Local
(UTC-5)
 Zulu
(UTC)
Morning civil twilight06:1611:16
Sunrise06:4611:46
Sunset17:1922:19
Evening civil twilight17:4822:48

Current date and time
Zulu (UTC)  17-Feb-2020 15:40:44
Local (UTC-5)  17-Feb-2020 10:40:44
 
METAR
K1V4 
17nm N 
171454Z AUTO M04/M12 A3019 RMK AO1 SLP237 T10391117 51025
KMPV 
24nm W 
171451Z AUTO 31009G17KT 280V350 10SM FEW030 M06/M12 A3022 RMK AO2 SLP250 T10561122 51023
K1P1 
24nm SE 
171515Z AUTO 28011G20KT 10SM CLR 00/M10 A3018 RMK AO2 T10021104
KHIE 
25nm NE 
171452Z AUTO 29012KT 10SM OVC035 M04/M12 A3017 RMK AO2 SLP232 T10441117 51026
KCDA 
26nm N 
171515Z AUTO 28008KT 10SM OVC033 M06/M12 A3020 RMK AO2 T10571118
KLEB 
32nm S 
171453Z 35004KT 10SM FEW048 01/M09 A3018 RMK AO2 SLP230 T00061094 51019
KMWN 
33nm E 
171447Z 29057KT 70SM OVC/// SCT/// FEW060 M16/M19 RMK TPS LWR OVC055 BBLO SCT NE-SE VIS LWR NE-SE
KMVL 
34nm NW 
171454Z AUTO 32010G16KT 10SM -SN FEW029 BKN038 OVC047 M05/M11 A3023 RMK AO2 SNE00B52 SLP251 P0000 60000 T10501111 51024
TAF
KMPV 
24nm W 
171123Z 1712/1812 31009KT P6SM SCT050 FM172200 33005KT P6SM SKC FM180000 VRB03KT P6SM SKC FM180700 16005KT P6SM SCT150 FM181100 16009KT P6SM OVC100
KHIE 
25nm NE 
171132Z 1712/1812 28004KT P6SM VCSH SCT015 SCT030 FM171600 29008KT P6SM FEW035 FM172300 00000KT P6SM SKC
NOTAMs
Click for the latest NOTAMs
NOTAMs are issued by the DoD/FAA and will open in a separate window not controlled by AirNav.

 

 
 

Would you like to see your business listed on this page?

 If your business provides an interesting product or service to pilots, flight crews, aircraft, or users of the Cottage Hospital Heliport, you should consider listing it here.  To start the listing process, click on the button below
 
Add a business
 

Other Pages about Cottage Hospital Heliport

Update a link
 
Copyright © AirNav, LLC. All rights reserved. Privacy Policy  Contact